sensor_id;sensor_type;location;lat;lon;timestamp;P1;durP1;ratioP1;P2;durP2;ratioP2
7171;SDS011;3627;46.544;14.944;2023-04-24T00:02:17;8.85;;;6.45;;
7171;SDS011;3627;46.544;14.944;2023-04-24T00:04:43;7.85;;;6.30;;
7171;SDS011;3627;46.544;14.944;2023-04-24T00:07:10;8.70;;;6.35;;
7171;SDS011;3627;46.544;14.944;2023-04-24T00:09:37;11.82;;;7.32;;
7171;SDS011;3627;46.544;14.944;2023-04-24T00:12:04;10.02;;;7.97;;
7171;SDS011;3627;46.544;14.944;2023-04-24T00:14:30;9.30;;;6.93;;
7171;SDS011;3627;46.544;14.944;2023-04-24T00:16:57;11.18;;;6.13;;
7171;SDS011;3627;46.544;14.944;2023-04-24T00:19:25;6.90;;;5.82;;
7171;SDS011;3627;46.544;14.944;2023-04-24T00:21:51;7.15;;;6.20;;
7171;SDS011;3627;46.544;14.944;2023-04-24T00:24:17;7.10;;;6.05;;
7171;SDS011;3627;46.544;14.944;2023-04-24T00:26:44;6.88;;;6.15;;
7171;SDS011;3627;46.544;14.944;2023-04-24T00:29:10;8.45;;;5.95;;
7171;SDS011;3627;46.544;14.944;2023-04-24T00:31:37;9.30;;;6.18;;
7171;SDS011;3627;46.544;14.944;2023-04-24T00:34:03;9.07;;;5.95;;
7171;SDS011;3627;46.544;14.944;2023-04-24T00:36:31;7.97;;;6.20;;
7171;SDS011;3627;46.544;14.944;2023-04-24T00:38:58;7.10;;;5.93;;
7171;SDS011;3627;46.544;14.944;2023-04-24T00:41:24;8.57;;;6.30;;
7171;SDS011;3627;46.544;14.944;2023-04-24T00:43:51;7.88;;;6.68;;
7171;SDS011;3627;46.544;14.944;2023-04-24T00:46:18;10.40;;;8.48;;
7171;SDS011;3627;46.544;14.944;2023-04-24T00:48:45;9.70;;;7.90;;
7171;SDS011;3627;46.544;14.944;2023-04-24T00:51:11;10.57;;;7.60;;
7171;SDS011;3627;46.544;14.944;2023-04-24T00:53:39;9.18;;;7.50;;
7171;SDS011;3627;46.544;14.944;2023-04-24T00:56:05;10.40;;;7.30;;
7171;SDS011;3627;46.544;14.944;2023-04-24T00:58:32;8.82;;;6.75;;
7171;SDS011;3627;46.544;14.944;2023-04-24T01:00:58;9.98;;;7.97;;
7171;SDS011;3627;46.544;14.944;2023-04-24T01:03:26;9.02;;;7.32;;
7171;SDS011;3627;46.544;14.944;2023-04-24T01:05:54;9.05;;;7.38;;
7171;SDS011;3627;46.544;14.944;2023-04-24T01:08:21;10.98;;;7.53;;
7171;SDS011;3627;46.544;14.944;2023-04-24T01:10:51;9.77;;;8.00;;
7171;SDS011;3627;46.544;14.944;2023-04-24T01:13:17;11.93;;;9.25;;
7171;SDS011;3627;46.544;14.944;2023-04-24T01:15:44;10.32;;;7.82;;
7171;SDS011;3627;46.544;14.944;2023-04-24T01:18:10;10.95;;;7.95;;
7171;SDS011;3627;46.544;14.944;2023-04-24T01:20:37;12.95;;;7.70;;
7171;SDS011;3627;46.544;14.944;2023-04-24T01:23:07;10.10;;;8.02;;
7171;SDS011;3627;46.544;14.944;2023-04-24T01:25:33;10.05;;;7.00;;
7171;SDS011;3627;46.544;14.944;2023-04-24T01:28:00;9.50;;;7.22;;
7171;SDS011;3627;46.544;14.944;2023-04-24T01:30:27;9.15;;;7.35;;
7171;SDS011;3627;46.544;14.944;2023-04-24T01:32:53;10.20;;;6.85;;
7171;SDS011;3627;46.544;14.944;2023-04-24T01:35:20;8.75;;;6.00;;
7171;SDS011;3627;46.544;14.944;2023-04-24T01:37:46;8.43;;;6.22;;
7171;SDS011;3627;46.544;14.944;2023-04-24T01:40:14;8.32;;;6.55;;
7171;SDS011;3627;46.544;14.944;2023-04-24T01:42:41;8.50;;;6.63;;
7171;SDS011;3627;46.544;14.944;2023-04-24T01:45:08;9.65;;;7.10;;
7171;SDS011;3627;46.544;14.944;2023-04-24T01:47:36;7.38;;;6.03;;
7171;SDS011;3627;46.544;14.944;2023-04-24T01:50:02;8.85;;;7.32;;
7171;SDS011;3627;46.544;14.944;2023-04-24T01:52:29;8.30;;;6.10;;
7171;SDS011;3627;46.544;14.944;2023-04-24T01:54:59;7.93;;;6.38;;
7171;SDS011;3627;46.544;14.944;2023-04-24T01:57:27;7.93;;;5.70;;
7171;SDS011;3627;46.544;14.944;2023-04-24T01:59:55;7.68;;;6.10;;
7171;SDS011;3627;46.544;14.944;2023-04-24T02:02:21;10.25;;;5.95;;
7171;SDS011;3627;46.544;14.944;2023-04-24T02:04:49;7.40;;;6.57;;
7171;SDS011;3627;46.544;14.944;2023-04-24T02:07:15;11.07;;;6.57;;
7171;SDS011;3627;46.544;14.944;2023-04-24T02:09:41;8.43;;;7.03;;
7171;SDS011;3627;46.544;14.944;2023-04-24T02:12:08;8.48;;;6.28;;
7171;SDS011;3627;46.544;14.944;2023-04-24T02:14:35;8.75;;;6.15;;
7171;SDS011;3627;46.544;14.944;2023-04-24T02:17:02;7.55;;;6.00;;
7171;SDS011;3627;46.544;14.944;2023-04-24T02:19:28;9.52;;;6.40;;
7171;SDS011;3627;46.544;14.944;2023-04-24T02:21:55;9.45;;;6.72;;
7171;SDS011;3627;46.544;14.944;2023-04-24T02:24:21;10.90;;;7.78;;
7171;SDS011;3627;46.544;14.944;2023-04-24T02:26:47;8.45;;;6.72;;
7171;SDS011;3627;46.544;14.944;2023-04-24T02:29:14;11.57;;;7.00;;
7171;SDS011;3627;46.544;14.944;2023-04-24T02:31:42;8.95;;;6.63;;
7171;SDS011;3627;46.544;14.944;2023-04-24T02:34:08;11.18;;;7.15;;
7171;SDS011;3627;46.544;14.944;2023-04-24T02:36:35;8.23;;;7.07;;
7171;SDS011;3627;46.544;14.944;2023-04-24T02:39:01;9.65;;;7.80;;
7171;SDS011;3627;46.544;14.944;2023-04-24T02:41:28;8.07;;;6.78;;
7171;SDS011;3627;46.544;14.944;2023-04-24T02:43:57;8.13;;;6.90;;
7171;SDS011;3627;46.544;14.944;2023-04-24T02:46:23;12.93;;;7.68;;
7171;SDS011;3627;46.544;14.944;2023-04-24T02:48:51;10.80;;;7.47;;
7171;SDS011;3627;46.544;14.944;2023-04-24T02:51:17;9.85;;;7.82;;
7171;SDS011;3627;46.544;14.944;2023-04-24T02:53:43;10.85;;;7.95;;
7171;SDS011;3627;46.544;14.944;2023-04-24T02:56:10;10.48;;;7.80;;
7171;SDS011;3627;46.544;14.944;2023-04-24T02:58:37;13.07;;;7.85;;
7171;SDS011;3627;46.544;14.944;2023-04-24T03:01:03;9.45;;;7.20;;
7171;SDS011;3627;46.544;14.944;2023-04-24T03:03:30;7.95;;;6.32;;
7171;SDS011;3627;46.544;14.944;2023-04-24T03:05:58;9.50;;;6.45;;
7171;SDS011;3627;46.544;14.944;2023-04-24T03:08:25;7.68;;;6.53;;
7171;SDS011;3627;46.544;14.944;2023-04-24T03:10:51;7.53;;;6.68;;
7171;SDS011;3627;46.544;14.944;2023-04-24T03:13:17;7.65;;;6.68;;
7171;SDS011;3627;46.544;14.944;2023-04-24T03:15:44;9.70;;;7.63;;
7171;SDS011;3627;46.544;14.944;2023-04-24T03:18:11;12.02;;;8.15;;
7171;SDS011;3627;46.544;14.944;2023-04-24T03:20:38;9.52;;;7.82;;
7171;SDS011;3627;46.544;14.944;2023-04-24T03:23:06;10.35;;;7.28;;
7171;SDS011;3627;46.544;14.944;2023-04-24T03:25:32;11.43;;;7.18;;
7171;SDS011;3627;46.544;14.944;2023-04-24T03:27:58;12.43;;;7.80;;
7171;SDS011;3627;46.544;14.944;2023-04-24T03:30:25;11.15;;;7.90;;
7171;SDS011;3627;46.544;14.944;2023-04-24T03:32:51;7.63;;;6.78;;
7171;SDS011;3627;46.544;14.944;2023-04-24T03:35:17;9.02;;;7.03;;
7171;SDS011;3627;46.544;14.944;2023-04-24T03:37:44;9.57;;;7.43;;
7171;SDS011;3627;46.544;14.944;2023-04-24T03:40:12;10.18;;;7.55;;
7171;SDS011;3627;46.544;14.944;2023-04-24T03:42:38;11.05;;;7.63;;
7171;SDS011;3627;46.544;14.944;2023-04-24T03:45:05;13.85;;;7.97;;
7171;SDS011;3627;46.544;14.944;2023-04-24T03:47:32;9.68;;;7.25;;
7171;SDS011;3627;46.544;14.944;2023-04-24T03:49:58;8.90;;;7.25;;
7171;SDS011;3627;46.544;14.944;2023-04-24T03:52:25;7.97;;;7.05;;
7171;SDS011;3627;46.544;14.944;2023-04-24T03:54:51;7.25;;;6.18;;
7171;SDS011;3627;46.544;14.944;2023-04-24T03:57:19;9.73;;;6.82;;
7171;SDS011;3627;46.544;14.944;2023-04-24T03:59:45;17.83;;;8.40;;
7171;SDS011;3627;46.544;14.944;2023-04-24T04:02:11;13.55;;;8.23;;
7171;SDS011;3627;46.544;14.944;2023-04-24T04:04:38;14.48;;;8.40;;
7171;SDS011;3627;46.544;14.944;2023-04-24T04:07:04;10.30;;;7.35;;
7171;SDS011;3627;46.544;14.944;2023-04-24T04:09:31;9.82;;;7.50;;
7171;SDS011;3627;46.544;14.944;2023-04-24T04:11:58;9.73;;;7.43;;
7171;SDS011;3627;46.544;14.944;2023-04-24T04:14:26;11.65;;;7.32;;
7171;SDS011;3627;46.544;14.944;2023-04-24T04:16:53;10.75;;;8.32;;
7171;SDS011;3627;46.544;14.944;2023-04-24T04:19:19;10.02;;;7.05;;
7171;SDS011;3627;46.544;14.944;2023-04-24T04:21:45;11.68;;;7.85;;
7171;SDS011;3627;46.544;14.944;2023-04-24T04:24:17;12.52;;;8.30;;
7171;SDS011;3627;46.544;14.944;2023-04-24T04:26:43;9.15;;;7.07;;
7171;SDS011;3627;46.544;14.944;2023-04-24T04:29:12;12.80;;;8.55;;
7171;SDS011;3627;46.544;14.944;2023-04-24T04:31:39;8.05;;;6.57;;
7171;SDS011;3627;46.544;14.944;2023-04-24T04:34:06;10.30;;;6.97;;
7171;SDS011;3627;46.544;14.944;2023-04-24T04:36:34;12.52;;;7.07;;
7171;SDS011;3627;46.544;14.944;2023-04-24T04:39:01;12.95;;;8.30;;
7171;SDS011;3627;46.544;14.944;2023-04-24T04:41:29;10.70;;;8.02;;
7171;SDS011;3627;46.544;14.944;2023-04-24T04:43:55;9.13;;;7.15;;
7171;SDS011;3627;46.544;14.944;2023-04-24T04:46:23;12.32;;;7.82;;
7171;SDS011;3627;46.544;14.944;2023-04-24T04:48:52;7.97;;;7.18;;
7171;SDS011;3627;46.544;14.944;2023-04-24T04:51:19;13.88;;;8.88;;
7171;SDS011;3627;46.544;14.944;2023-04-24T04:53:45;11.77;;;8.55;;
7171;SDS011;3627;46.544;14.944;2023-04-24T04:56:12;11.63;;;8.80;;
7171;SDS011;3627;46.544;14.944;2023-04-24T04:58:38;14.80;;;8.75;;
7171;SDS011;3627;46.544;14.944;2023-04-24T05:01:04;12.35;;;8.70;;
7171;SDS011;3627;46.544;14.944;2023-04-24T05:03:31;11.90;;;9.02;;
7171;SDS011;3627;46.544;14.944;2023-04-24T05:05:59;14.05;;;8.80;;
7171;SDS011;3627;46.544;14.944;2023-04-24T05:08:26;10.20;;;7.95;;
7171;SDS011;3627;46.544;14.944;2023-04-24T05:10:52;10.68;;;8.50;;
7171;SDS011;3627;46.544;14.944;2023-04-24T05:13:18;10.73;;;7.80;;
7171;SDS011;3627;46.544;14.944;2023-04-24T05:15:45;10.32;;;7.97;;
7171;SDS011;3627;46.544;14.944;2023-04-24T05:18:11;9.70;;;7.85;;
7171;SDS011;3627;46.544;14.944;2023-04-24T05:20:38;11.68;;;9.00;;
7171;SDS011;3627;46.544;14.944;2023-04-24T05:23:05;12.57;;;9.35;;
7171;SDS011;3627;46.544;14.944;2023-04-24T05:25:32;16.30;;;8.23;;
7171;SDS011;3627;46.544;14.944;2023-04-24T05:28:00;12.55;;;8.55;;
7171;SDS011;3627;46.544;14.944;2023-04-24T05:30:26;12.05;;;8.98;;
7171;SDS011;3627;46.544;14.944;2023-04-24T05:32:53;14.13;;;8.13;;
7171;SDS011;3627;46.544;14.944;2023-04-24T05:35:19;12.43;;;8.25;;
7171;SDS011;3627;46.544;14.944;2023-04-24T05:37:46;27.00;;;15.52;;
7171;SDS011;3627;46.544;14.944;2023-04-24T05:40:13;114.03;;;54.10;;
7171;SDS011;3627;46.544;14.944;2023-04-24T05:42:40;37.83;;;22.27;;
7171;SDS011;3627;46.544;14.944;2023-04-24T05:45:06;54.65;;;35.97;;
7171;SDS011;3627;46.544;14.944;2023-04-24T05:47:34;32.47;;;21.05;;
7171;SDS011;3627;46.544;14.944;2023-04-24T05:50:00;19.42;;;11.80;;
7171;SDS011;3627;46.544;14.944;2023-04-24T05:52:27;15.90;;;12.10;;
7171;SDS011;3627;46.544;14.944;2023-04-24T05:54:53;16.90;;;11.30;;
7171;SDS011;3627;46.544;14.944;2023-04-24T05:57:21;16.70;;;10.52;;
7171;SDS011;3627;46.544;14.944;2023-04-24T05:59:47;19.15;;;10.85;;
7171;SDS011;3627;46.544;14.944;2023-04-24T06:02:14;17.33;;;11.23;;
7171;SDS011;3627;46.544;14.944;2023-04-24T06:04:40;17.13;;;10.00;;
7171;SDS011;3627;46.544;14.944;2023-04-24T06:07:07;16.08;;;10.07;;
7171;SDS011;3627;46.544;14.944;2023-04-24T06:09:33;15.38;;;10.60;;
7171;SDS011;3627;46.544;14.944;2023-04-24T06:12:00;14.05;;;9.35;;
7171;SDS011;3627;46.544;14.944;2023-04-24T06:14:27;15.27;;;10.00;;
7171;SDS011;3627;46.544;14.944;2023-04-24T06:16:54;14.57;;;10.15;;
7171;SDS011;3627;46.544;14.944;2023-04-24T06:19:20;16.75;;;11.30;;
7171;SDS011;3627;46.544;14.944;2023-04-24T06:21:46;21.60;;;13.60;;
7171;SDS011;3627;46.544;14.944;2023-04-24T06:24:13;25.98;;;14.07;;
7171;SDS011;3627;46.544;14.944;2023-04-24T06:26:40;20.30;;;13.23;;
7171;SDS011;3627;46.544;14.944;2023-04-24T06:29:07;18.52;;;11.43;;
7171;SDS011;3627;46.544;14.944;2023-04-24T06:31:35;19.05;;;11.10;;
7171;SDS011;3627;46.544;14.944;2023-04-24T06:34:02;16.70;;;10.73;;
7171;SDS011;3627;46.544;14.944;2023-04-24T06:36:28;20.00;;;11.40;;
7171;SDS011;3627;46.544;14.944;2023-04-24T06:38:55;20.48;;;13.45;;
7171;SDS011;3627;46.544;14.944;2023-04-24T06:41:22;23.15;;;12.02;;
7171;SDS011;3627;46.544;14.944;2023-04-24T06:43:48;19.00;;;11.48;;
7171;SDS011;3627;46.544;14.944;2023-04-24T06:46:15;20.13;;;12.50;;
7171;SDS011;3627;46.544;14.944;2023-04-24T06:48:43;15.88;;;10.98;;
7171;SDS011;3627;46.544;14.944;2023-04-24T06:51:09;19.23;;;11.27;;
7171;SDS011;3627;46.544;14.944;2023-04-24T06:53:35;16.88;;;10.35;;
7171;SDS011;3627;46.544;14.944;2023-04-24T06:56:02;15.20;;;11.02;;
7171;SDS011;3627;46.544;14.944;2023-04-24T06:58:29;15.30;;;9.38;;
7171;SDS011;3627;46.544;14.944;2023-04-24T07:00:56;13.40;;;10.40;;
7171;SDS011;3627;46.544;14.944;2023-04-24T07:03:22;11.93;;;9.88;;
7171;SDS011;3627;46.544;14.944;2023-04-24T07:05:50;17.88;;;12.15;;
7171;SDS011;3627;46.544;14.944;2023-04-24T07:08:18;19.75;;;13.38;;
7171;SDS011;3627;46.544;14.944;2023-04-24T07:10:45;24.98;;;14.93;;
7171;SDS011;3627;46.544;14.944;2023-04-24T07:13:12;28.48;;;14.10;;
7171;SDS011;3627;46.544;14.944;2023-04-24T07:15:38;23.40;;;13.32;;
7171;SDS011;3627;46.544;14.944;2023-04-24T07:18:06;22.05;;;12.32;;
7171;SDS011;3627;46.544;14.944;2023-04-24T07:20:32;21.75;;;13.38;;
7171;SDS011;3627;46.544;14.944;2023-04-24T07:23:00;25.42;;;13.85;;
7171;SDS011;3627;46.544;14.944;2023-04-24T07:25:27;28.42;;;15.98;;
7171;SDS011;3627;46.544;14.944;2023-04-24T07:27:53;33.17;;;15.95;;
7171;SDS011;3627;46.544;14.944;2023-04-24T07:30:19;24.02;;;15.05;;
7171;SDS011;3627;46.544;14.944;2023-04-24T07:32:46;23.05;;;13.48;;
7171;SDS011;3627;46.544;14.944;2023-04-24T07:35:12;19.27;;;13.85;;
7171;SDS011;3627;46.544;14.944;2023-04-24T07:37:38;19.95;;;13.00;;
7171;SDS011;3627;46.544;14.944;2023-04-24T07:40:07;25.67;;;13.85;;
7171;SDS011;3627;46.544;14.944;2023-04-24T07:42:33;19.23;;;12.10;;
7171;SDS011;3627;46.544;14.944;2023-04-24T07:45:01;20.77;;;11.55;;
7171;SDS011;3627;46.544;14.944;2023-04-24T07:47:27;20.17;;;12.98;;
7171;SDS011;3627;46.544;14.944;2023-04-24T07:49:54;19.67;;;13.38;;
7171;SDS011;3627;46.544;14.944;2023-04-24T07:52:21;15.73;;;10.93;;
7171;SDS011;3627;46.544;14.944;2023-04-24T07:54:47;18.50;;;10.93;;
7171;SDS011;3627;46.544;14.944;2023-04-24T07:57:16;24.13;;;16.08;;
7171;SDS011;3627;46.544;14.944;2023-04-24T07:59:42;47.22;;;32.13;;
7171;SDS011;3627;46.544;14.944;2023-04-24T08:02:08;21.95;;;12.43;;
7171;SDS011;3627;46.544;14.944;2023-04-24T08:04:35;18.08;;;12.27;;
7171;SDS011;3627;46.544;14.944;2023-04-24T08:07:01;21.55;;;11.40;;
7171;SDS011;3627;46.544;14.944;2023-04-24T08:09:28;21.45;;;11.50;;
7171;SDS011;3627;46.544;14.944;2023-04-24T08:11:54;15.82;;;10.68;;
7171;SDS011;3627;46.544;14.944;2023-04-24T08:14:22;19.88;;;12.15;;
7171;SDS011;3627;46.544;14.944;2023-04-24T08:16:49;27.98;;;16.40;;
7171;SDS011;3627;46.544;14.944;2023-04-24T08:19:15;23.38;;;13.88;;
7171;SDS011;3627;46.544;14.944;2023-04-24T08:21:42;20.40;;;12.02;;
7171;SDS011;3627;46.544;14.944;2023-04-24T08:24:08;18.48;;;11.77;;
7171;SDS011;3627;46.544;14.944;2023-04-24T08:26:34;18.65;;;11.60;;
7171;SDS011;3627;46.544;14.944;2023-04-24T08:29:01;18.27;;;10.88;;
7171;SDS011;3627;46.544;14.944;2023-04-24T08:31:28;25.50;;;13.75;;
7171;SDS011;3627;46.544;14.944;2023-04-24T08:33:55;28.50;;;16.00;;
7171;SDS011;3627;46.544;14.944;2023-04-24T08:36:21;27.10;;;13.80;;
7171;SDS011;3627;46.544;14.944;2023-04-24T08:38:48;22.98;;;12.65;;
7171;SDS011;3627;46.544;14.944;2023-04-24T08:41:14;20.70;;;12.20;;
7171;SDS011;3627;46.544;14.944;2023-04-24T08:43:41;18.45;;;11.95;;
7171;SDS011;3627;46.544;14.944;2023-04-24T08:46:07;19.63;;;11.00;;
7171;SDS011;3627;46.544;14.944;2023-04-24T08:48:36;19.17;;;11.43;;
7171;SDS011;3627;46.544;14.944;2023-04-24T08:51:04;18.25;;;9.95;;
7171;SDS011;3627;46.544;14.944;2023-04-24T08:53:33;14.98;;;9.85;;
7171;SDS011;3627;46.544;14.944;2023-04-24T08:55:59;13.70;;;8.25;;
7171;SDS011;3627;46.544;14.944;2023-04-24T08:58:26;14.38;;;8.95;;
7171;SDS011;3627;46.544;14.944;2023-04-24T09:00:54;15.13;;;8.18;;
7171;SDS011;3627;46.544;14.944;2023-04-24T09:03:20;11.32;;;8.52;;
7171;SDS011;3627;46.544;14.944;2023-04-24T09:05:48;13.80;;;8.45;;
7171;SDS011;3627;46.544;14.944;2023-04-24T09:08:15;13.18;;;8.18;;
7171;SDS011;3627;46.544;14.944;2023-04-24T09:10:42;9.73;;;7.30;;
7171;SDS011;3627;46.544;14.944;2023-04-24T09:13:09;10.45;;;7.68;;
7171;SDS011;3627;46.544;14.944;2023-04-24T09:15:35;11.75;;;7.47;;
7171;SDS011;3627;46.544;14.944;2023-04-24T09:18:02;11.93;;;7.95;;
7171;SDS011;3627;46.544;14.944;2023-04-24T09:20:28;11.38;;;7.88;;
7171;SDS011;3627;46.544;14.944;2023-04-24T09:22:56;11.38;;;7.85;;
7171;SDS011;3627;46.544;14.944;2023-04-24T09:25:25;11.20;;;7.45;;
7171;SDS011;3627;46.544;14.944;2023-04-24T09:27:58;13.32;;;8.23;;
7171;SDS011;3627;46.544;14.944;2023-04-24T09:30:26;12.35;;;8.20;;
7171;SDS011;3627;46.544;14.944;2023-04-24T09:32:59;13.35;;;8.55;;
7171;SDS011;3627;46.544;14.944;2023-04-24T09:35:35;14.70;;;9.07;;
7171;SDS011;3627;46.544;14.944;2023-04-24T09:38:03;14.82;;;10.45;;
7171;SDS011;3627;46.544;14.944;2023-04-24T09:40:29;18.33;;;9.40;;
7171;SDS011;3627;46.544;14.944;2023-04-24T09:42:56;14.32;;;9.00;;
7171;SDS011;3627;46.544;14.944;2023-04-24T09:45:22;13.25;;;8.48;;
7171;SDS011;3627;46.544;14.944;2023-04-24T09:47:53;14.18;;;7.32;;
7171;SDS011;3627;46.544;14.944;2023-04-24T09:50:20;10.38;;;7.43;;
7171;SDS011;3627;46.544;14.944;2023-04-24T09:52:55;8.20;;;7.30;;
7171;SDS011;3627;46.544;14.944;2023-04-24T09:55:23;9.60;;;6.32;;
7171;SDS011;3627;46.544;14.944;2023-04-24T09:57:50;9.13;;;6.85;;
7171;SDS011;3627;46.544;14.944;2023-04-24T10:00:18;10.27;;;7.05;;
7171;SDS011;3627;46.544;14.944;2023-04-24T10:02:49;9.57;;;7.00;;
7171;SDS011;3627;46.544;14.944;2023-04-24T10:05:15;9.10;;;7.30;;
7171;SDS011;3627;46.544;14.944;2023-04-24T10:07:43;7.60;;;6.80;;
7171;SDS011;3627;46.544;14.944;2023-04-24T10:10:10;11.32;;;7.38;;
7171;SDS011;3627;46.544;14.944;2023-04-24T10:12:38;9.15;;;7.10;;
7171;SDS011;3627;46.544;14.944;2023-04-24T10:15:05;12.60;;;7.47;;
7171;SDS011;3627;46.544;14.944;2023-04-24T10:17:32;10.55;;;7.60;;
7171;SDS011;3627;46.544;14.944;2023-04-24T10:19:58;10.55;;;6.63;;
7171;SDS011;3627;46.544;14.944;2023-04-24T10:22:26;10.57;;;6.80;;
7171;SDS011;3627;46.544;14.944;2023-04-24T10:24:54;9.43;;;7.22;;
7171;SDS011;3627;46.544;14.944;2023-04-24T10:27:22;7.72;;;6.93;;
7171;SDS011;3627;46.544;14.944;2023-04-24T10:29:50;9.68;;;7.45;;
7171;SDS011;3627;46.544;14.944;2023-04-24T10:32:19;13.68;;;7.40;;
7171;SDS011;3627;46.544;14.944;2023-04-24T10:34:45;8.88;;;7.53;;
7171;SDS011;3627;46.544;14.944;2023-04-24T10:37:12;9.75;;;7.57;;
7171;SDS011;3627;46.544;14.944;2023-04-24T10:39:38;8.13;;;7.32;;
7171;SDS011;3627;46.544;14.944;2023-04-24T10:42:13;8.38;;;7.40;;
7171;SDS011;3627;46.544;14.944;2023-04-24T10:44:39;5.82;;;5.32;;
7171;SDS011;3627;46.544;14.944;2023-04-24T10:47:07;8.52;;;5.97;;
7171;SDS011;3627;46.544;14.944;2023-04-24T10:49:38;9.10;;;5.90;;
7171;SDS011;3627;46.544;14.944;2023-04-24T10:52:05;7.57;;;5.60;;
7171;SDS011;3627;46.544;14.944;2023-04-24T10:54:34;6.80;;;5.88;;
7171;SDS011;3627;46.544;14.944;2023-04-24T10:59:46;6.93;;;4.68;;
7171;SDS011;3627;46.544;14.944;2023-04-24T11:02:15;5.10;;;4.60;;
7171;SDS011;3627;46.544;14.944;2023-04-24T11:04:41;6.85;;;5.25;;
7171;SDS011;3627;46.544;14.944;2023-04-24T11:07:08;5.45;;;4.43;;
7171;SDS011;3627;46.544;14.944;2023-04-24T11:09:35;6.03;;;4.00;;
7171;SDS011;3627;46.544;14.944;2023-04-24T11:12:05;5.22;;;4.72;;
7171;SDS011;3627;46.544;14.944;2023-04-24T11:17:26;5.72;;;4.88;;
7171;SDS011;3627;46.544;14.944;2023-04-24T11:19:52;6.32;;;5.40;;
7171;SDS011;3627;46.544;14.944;2023-04-24T11:22:26;5.93;;;5.32;;
7171;SDS011;3627;46.544;14.944;2023-04-24T11:24:54;5.20;;;4.75;;
7171;SDS011;3627;46.544;14.944;2023-04-24T11:27:22;7.90;;;5.78;;
7171;SDS011;3627;46.544;14.944;2023-04-24T11:29:58;7.68;;;6.00;;
7171;SDS011;3627;46.544;14.944;2023-04-24T11:32:27;5.93;;;4.80;;
7171;SDS011;3627;46.544;14.944;2023-04-24T11:34:54;5.25;;;4.75;;
7171;SDS011;3627;46.544;14.944;2023-04-24T11:37:22;5.95;;;4.80;;
7171;SDS011;3627;46.544;14.944;2023-04-24T11:39:50;5.28;;;4.60;;
7171;SDS011;3627;46.544;14.944;2023-04-24T11:42:16;4.85;;;4.30;;
7171;SDS011;3627;46.544;14.944;2023-04-24T11:44:43;7.80;;;6.65;;
7171;SDS011;3627;46.544;14.944;2023-04-24T11:47:09;4.15;;;3.75;;
7171;SDS011;3627;46.544;14.944;2023-04-24T11:49:37;4.53;;;4.13;;
7171;SDS011;3627;46.544;14.944;2023-04-24T11:52:04;7.65;;;3.92;;
7171;SDS011;3627;46.544;14.944;2023-04-24T11:54:30;5.40;;;4.03;;
7171;SDS011;3627;46.544;14.944;2023-04-24T11:56:57;4.85;;;3.90;;
7171;SDS011;3627;46.544;14.944;2023-04-24T11:59:23;3.60;;;3.30;;
7171;SDS011;3627;46.544;14.944;2023-04-24T12:01:50;6.32;;;5.72;;
7171;SDS011;3627;46.544;14.944;2023-04-24T12:04:17;6.38;;;5.72;;
7171;SDS011;3627;46.544;14.944;2023-04-24T12:07:00;4.53;;;3.78;;
7171;SDS011;3627;46.544;14.944;2023-04-24T12:09:27;5.13;;;4.40;;
7171;SDS011;3627;46.544;14.944;2023-04-24T12:11:53;5.88;;;3.85;;
7171;SDS011;3627;46.544;14.944;2023-04-24T12:14:20;6.25;;;3.92;;
7171;SDS011;3627;46.544;14.944;2023-04-24T12:16:47;2.80;;;2.60;;
7171;SDS011;3627;46.544;14.944;2023-04-24T12:19:17;3.00;;;2.80;;
7171;SDS011;3627;46.544;14.944;2023-04-24T12:21:43;3.78;;;3.00;;
7171;SDS011;3627;46.544;14.944;2023-04-24T12:24:11;12.07;;;10.77;;
7171;SDS011;3627;46.544;14.944;2023-04-24T12:26:37;6.28;;;4.50;;
7171;SDS011;3627;46.544;14.944;2023-04-24T12:29:08;2.33;;;2.22;;
7171;SDS011;3627;46.544;14.944;2023-04-24T12:31:35;3.20;;;2.70;;
7171;SDS011;3627;46.544;14.944;2023-04-24T12:34:01;3.38;;;3.08;;
7171;SDS011;3627;46.544;14.944;2023-04-24T12:36:28;4.78;;;3.00;;
7171;SDS011;3627;46.544;14.944;2023-04-24T12:38:54;3.70;;;3.40;;
7171;SDS011;3627;46.544;14.944;2023-04-24T12:41:22;4.32;;;3.00;;
7171;SDS011;3627;46.544;14.944;2023-04-24T12:43:52;3.10;;;2.80;;
7171;SDS011;3627;46.544;14.944;2023-04-24T12:46:18;3.17;;;2.85;;
7171;SDS011;3627;46.544;14.944;2023-04-24T12:48:45;3.05;;;2.75;;
7171;SDS011;3627;46.544;14.944;2023-04-24T12:51:11;3.97;;;2.40;;
7171;SDS011;3627;46.544;14.944;2023-04-24T12:53:37;2.50;;;2.30;;
7171;SDS011;3627;46.544;14.944;2023-04-24T12:56:04;3.00;;;2.70;;
7171;SDS011;3627;46.544;14.944;2023-04-24T12:58:32;3.83;;;3.42;;
7171;SDS011;3627;46.544;14.944;2023-04-24T13:00:58;6.63;;;3.20;;
7171;SDS011;3627;46.544;14.944;2023-04-24T13:03:25;4.32;;;3.30;;
7171;SDS011;3627;46.544;14.944;2023-04-24T13:05:52;3.30;;;3.00;;
7171;SDS011;3627;46.544;14.944;2023-04-24T13:08:18;4.00;;;3.15;;
7171;SDS011;3627;46.544;14.944;2023-04-24T13:10:45;3.15;;;2.88;;
7171;SDS011;3627;46.544;14.944;2023-04-24T13:13:11;3.60;;;2.72;;
7171;SDS011;3627;46.544;14.944;2023-04-24T13:15:39;2.65;;;2.33;;
7171;SDS011;3627;46.544;14.944;2023-04-24T13:18:05;2.90;;;2.70;;
7171;SDS011;3627;46.544;14.944;2023-04-24T13:20:32;3.35;;;2.97;;
7171;SDS011;3627;46.544;14.944;2023-04-24T13:23:00;2.90;;;2.70;;
7171;SDS011;3627;46.544;14.944;2023-04-24T13:25:26;2.75;;;2.55;;
7171;SDS011;3627;46.544;14.944;2023-04-24T13:27:53;2.85;;;2.42;;
7171;SDS011;3627;46.544;14.944;2023-04-24T13:30:19;3.63;;;2.65;;
7171;SDS011;3627;46.544;14.944;2023-04-24T13:32:47;5.47;;;3.67;;
7171;SDS011;3627;46.544;14.944;2023-04-24T13:35:14;3.33;;;2.78;;
7171;SDS011;3627;46.544;14.944;2023-04-24T13:37:41;2.80;;;2.60;;
7171;SDS011;3627;46.544;14.944;2023-04-24T13:40:07;3.50;;;3.17;;
7171;SDS011;3627;46.544;14.944;2023-04-24T13:42:34;3.28;;;2.95;;
7171;SDS011;3627;46.544;14.944;2023-04-24T13:45:01;3.27;;;2.90;;
7171;SDS011;3627;46.544;14.944;2023-04-24T13:47:27;4.85;;;3.70;;
7171;SDS011;3627;46.544;14.944;2023-04-24T13:49:55;4.68;;;3.38;;
7171;SDS011;3627;46.544;14.944;2023-04-24T13:52:21;4.07;;;3.58;;
7171;SDS011;3627;46.544;14.944;2023-04-24T13:54:48;4.35;;;3.70;;
7171;SDS011;3627;46.544;14.944;2023-04-24T13:57:14;6.00;;;4.60;;
7171;SDS011;3627;46.544;14.944;2023-04-24T13:59:41;5.85;;;5.10;;
7171;SDS011;3627;46.544;14.944;2023-04-24T14:02:08;4.97;;;4.40;;
7171;SDS011;3627;46.544;14.944;2023-04-24T14:04:34;5.90;;;4.47;;
7171;SDS011;3627;46.544;14.944;2023-04-24T14:07:05;6.60;;;4.25;;
7171;SDS011;3627;46.544;14.944;2023-04-24T14:09:33;6.95;;;4.57;;
7171;SDS011;3627;46.544;14.944;2023-04-24T14:11:59;5.38;;;4.65;;
7171;SDS011;3627;46.544;14.944;2023-04-24T14:14:27;7.10;;;3.97;;
7171;SDS011;3627;46.544;14.944;2023-04-24T14:16:54;4.85;;;4.32;;
7171;SDS011;3627;46.544;14.944;2023-04-24T14:19:21;10.35;;;6.57;;
7171;SDS011;3627;46.544;14.944;2023-04-24T14:21:48;10.45;;;7.38;;
7171;SDS011;3627;46.544;14.944;2023-04-24T14:24:16;6.00;;;4.85;;
7171;SDS011;3627;46.544;14.944;2023-04-24T14:26:42;5.63;;;4.65;;
7171;SDS011;3627;46.544;14.944;2023-04-24T14:29:09;5.68;;;4.93;;
7171;SDS011;3627;46.544;14.944;2023-04-24T14:31:35;5.72;;;4.43;;
7171;SDS011;3627;46.544;14.944;2023-04-24T14:34:02;5.72;;;4.45;;
7171;SDS011;3627;46.544;14.944;2023-04-24T14:36:28;6.65;;;4.25;;
7171;SDS011;3627;46.544;14.944;2023-04-24T14:38:55;7.40;;;4.72;;
7171;SDS011;3627;46.544;14.944;2023-04-24T14:41:23;6.40;;;4.60;;
7171;SDS011;3627;46.544;14.944;2023-04-24T14:43:49;9.27;;;5.53;;
7171;SDS011;3627;46.544;14.944;2023-04-24T14:46:16;8.02;;;5.63;;
7171;SDS011;3627;46.544;14.944;2023-04-24T14:48:42;7.10;;;5.45;;
7171;SDS011;3627;46.544;14.944;2023-04-24T14:51:09;7.38;;;5.20;;
7171;SDS011;3627;46.544;14.944;2023-04-24T14:53:35;7.57;;;5.07;;
7171;SDS011;3627;46.544;14.944;2023-04-24T14:56:01;6.05;;;5.00;;
7171;SDS011;3627;46.544;14.944;2023-04-24T14:58:29;7.50;;;5.10;;